ADDS METAR Data INFO
IDs: Format: Raw Decoded Include TAF

Data at: 1156 UTC 25 Jun 2018

KRBD 251153Z 17003KT 4SM -RA SCT028 BKN035 OVC080 26/23 A3003 RMK AO2 RAB30 SLP159 P0001 60001 70001 T02560228 10294 20256 53050
KRBD 251142Z 00000KT 8SM -RA FEW024 BKN032 OVC048 26/22 A3004 RMK AO2 RAB30 P0000 T02610222
KRBD 251121Z AUTO 31007KT 10SM BKN024 OVC032 27/22 A3004 RMK AO2 T02720217
KRBD 251113Z AUTO 31008KT 10SM BKN025 BKN032 27/22 A3004 RMK AO2 T02720217
KRBD 251053Z AUTO 19005G15KT 10SM FEW026 SCT034 27/21 A2996 RMK AO2 PRESRR SLP133 T02670211
KRBD 250953Z AUTO 18010G19KT 10SM BKN032 27/21 A2991 RMK AO2 SLP115 T02720211
KRBD 250929Z AUTO 18015G21KT 10SM SCT024 OVC032 27/21 A2989 RMK AO2 T02720211
KRBD 250853Z AUTO 18011G18KT 10SM BKN027 28/22 A2988 RMK AO2 PK WND 18026/0818 SLP107 T02780222 53011
KRBD 250753Z AUTO 18017G25KT 10SM BKN023 28/22 A2984 RMK AO2 PK WND 16029/0654 SLP094 T02780217
KRBD 250653Z AUTO 17017G25KT 10SM CLR 28/21 A2983 RMK AO2 PK WND 16026/0635 SLP089 T02830211
KRBD 250553Z AUTO 16016G24KT 10SM CLR 29/21 A2985 RMK AO2 PK WND 16026/0511 SLP096 T02940211 10361 20294 403780272 50003
KRBD 250453Z AUTO 16014G21KT 10SM CLR 30/21 A2986 RMK AO2 SLP100 T03000206
KRBD 250353Z AUTO 15014KT 10SM CLR 31/21 A2986 RMK AO2 SLP101 T03110206
KRBD 250253Z AUTO 15014G20KT 10SM CLR 32/21 A2984 RMK AO2 SLP093 T03220206 55000
KRBD 250153Z AUTO 15011KT 10SM FEW060 33/19 A2982 RMK AO2 SLP088 T03330194
KRBD 250053Z 16016G21KT 10SM FEW075 35/19 A2984 RMK AO2 SLP093 T03500189
KRBD 242353Z 15010G19KT 10SM BKN070 36/19 A2984 RMK AO2 PK WND 14028/2312 SLP092 T03610189 10378 20339 53016
KRBD 242253Z 14018G24KT 10SM FEW065 37/19 A2982 RMK AO2 PK WND 18032/2204 SLP086 T03720194
KRBD 242153Z 17016G31KT 10SM CLR 38/20 A2977 RMK AO2 PK WND 15034/2136 SLP071 T03780200
KRBD 242053Z 17020G27KT 10SM CLR 37/19 A2979 RMK AO2 PK WND 16031/1956 SLP075 T03720194 56021
KRBD 241953Z 16018G27KT 10SM CLR 37/19 A2979 RMK AO2 PK WND 17030/1931 SLP076 T03720194
KRBD 241853Z 15016G23KT 10SM FEW050 35/20 A2983 RMK AO2 SLP090 T03500200
KRBD 241753Z 16017G23KT 10SM CLR 34/21 A2985 RMK AO2 SLP098 T03390206 10339 20278 56012
KRBD 241653Z 16018G21KT 10SM SCT039 33/21 A2986 RMK AO2 SLP102 T03280211
KRBD 241553Z 19010G19KT 10SM SCT041 32/21 A2987 RMK AO2 LTG DSNT SW SLP105 T03170211
KRBD 241453Z 13007KT 10SM SCT035 31/22 A2989 RMK AO2 SLP110 T03060222 51026
KRBD 241353Z VRB06G15KT 10SM SCT028 BKN035 28/22 A2988 RMK AO2 SLP107 T02830217
KRBD 241311Z VRB04KT 10SM BKN028 OVC033 28/22 A2986 RMK AO2 PRESRR T02780217
KRBD 241253Z 18014G24KT 10SM BKN030 28/21 A2982 RMK AO2 SLP089 T02780211
KRBD 241246Z 18011G22KT 10SM BKN030 28/21 A2981 RMK AO2 T02780211
KRBD 241227Z 18009G16KT 10SM BKN029 BKN033 28/21 A2981 RMK AO2 T02780211
KRBD 241212Z 18014G24KT 10SM BKN030 28/21 A2981 RMK AO2 T02780211
KRBD 241153Z 19012G21KT 10SM BKN029 OVC034 28/21 A2981 RMK AO2 SLP083 T02780211 10294 20272 53042
KRBD 241102Z AUTO 20010G19KT 160V220 10SM BKN029 28/21 A2979 RMK AO2 T02780211
KRBD 241053Z AUTO 19008KT 10SM SCT027 27/22 A2977 RMK AO2 PK WND 16034/0955 SLP068 T02720217
KRBD 240953Z AUTO 17021G29KT 10SM FEW024 28/22 A2969 RMK AO2 PK WND 17039/0912 SLP041 T02780217
KRBD 240853Z AUTO 17024G34KT 10SM CLR 28/22 A2968 RMK AO2 PK WND 17037/0834 SLP039 T02780217 56049
KRBD 240753Z AUTO 17019G31KT 10SM CLR 28/22 A2971 RMK AO2 PK WND 16031/0748 PRESFR SLP049 T02830217
KRBD 240653Z AUTO 17022G28KT 10SM FEW120 29/22 A2979 RMK AO2 PK WND 18028/0653 LTG DSNT W AND NW SLP078 T02890217
KRBD 240553Z AUTO 18012G22KT 10SM CLR 29/21 A2983 RMK AO2 SLP090 T02940211 10356 20294 403720272 53030
KRBD 240453Z AUTO 16015G23KT 10SM CLR 31/21 A2979 RMK AO2 SLP078 T03060206
KRBD 240353Z AUTO 15013G19KT 10SM CLR 31/21 A2977 RMK AO2 SLP072 T03110206
KRBD 240253Z AUTO 15015KT 10SM FEW060 32/21 A2974 RMK AO2 SLP059 T03220206 51005
KRBD 240153Z AUTO 14011KT 10SM BKN060 33/21 A2974 RMK AO2 SLP059 T03280206
KRBD 240053Z 14013KT 10SM FEW065 34/20 A2973 RMK AO2 SLP057 T03440200